createdAt,value
2022-10-17T00:01:48.193Z,66.25
2022-10-17T00:04:19.138Z,66.34
2022-10-17T00:06:50.068Z,66.34
2022-10-17T00:09:20.894Z,66.89
2022-10-17T00:11:52.264Z,67.14
2022-10-17T00:14:22.474Z,67.14
2022-10-17T00:16:53.322Z,66.63
2022-10-17T00:19:24.326Z,66.91
2022-10-17T00:21:54.448Z,66.78
2022-10-17T00:24:24.666Z,66.78
2022-10-17T00:26:56.470Z,67.17
2022-10-17T00:29:27.686Z,67.17
2022-10-17T00:31:59.101Z,66.88
2022-10-17T00:34:30.334Z,66.90
2022-10-17T00:37:00.573Z,66.47
2022-10-17T00:39:31.585Z,66.67
2022-10-17T00:42:02.180Z,66.67
2022-10-17T00:44:35.750Z,67.24
2022-10-17T00:47:09.112Z,67.50
2022-10-17T00:49:41.053Z,66.64
2022-10-17T00:52:14.228Z,66.64
2022-10-17T00:54:47.361Z,66.30
2022-10-17T00:57:19.166Z,67.00
2022-10-17T00:59:52.341Z,66.69
2022-10-17T01:02:23.556Z,67.28
2022-10-17T01:04:56.533Z,67.63
2022-10-17T01:07:33.152Z,67.63
2022-10-17T01:10:01.712Z,67.16
2022-10-17T01:12:54.885Z,66.76
2022-10-17T01:15:49.215Z,67.17
2022-10-17T01:18:43.819Z,67.46
2022-10-17T01:21:35.646Z,67.57
2022-10-17T01:24:14.656Z,67.19
2022-10-17T01:27:06.588Z,67.36
2022-10-17T01:30:03.287Z,67.41
2022-10-17T01:35:27.738Z,67.50
2022-10-17T01:38:03.398Z,67.96
2022-10-17T01:40:45.653Z,68.19
2022-10-17T01:43:27.311Z,68.17
2022-10-17T01:46:15.569Z,67.79
2022-10-17T01:48:46.984Z,67.79
2022-10-17T01:51:20.135Z,67.67
2022-10-17T01:53:56.396Z,67.65
2022-10-17T01:56:29.577Z,68.02
2022-10-17T01:59:02.823Z,68.23
2022-10-17T02:01:36.518Z,68.11
2022-10-17T02:04:09.513Z,68.45
2022-10-17T02:06:39.829Z,68.45
2022-10-17T02:09:40.262Z,68.84
2022-10-17T02:12:42.126Z,68.84
2022-10-17T02:15:30.540Z,68.57
2022-10-17T02:18:06.424Z,68.47
2022-10-17T02:20:51.292Z,68.31
2022-10-17T02:23:33.450Z,68.43
2022-10-17T02:26:09.840Z,68.29
2022-10-17T02:28:43.690Z,68.29
2022-10-17T02:31:19.635Z,68.20
2022-10-17T02:33:53.613Z,68.19
2022-10-17T02:36:27.035Z,68.52
2022-10-17T02:38:59.402Z,68.65
2022-10-17T02:41:31.666Z,68.93
2022-10-17T02:44:05.340Z,68.93
2022-10-17T02:46:38.027Z,69.08
2022-10-17T02:49:19.634Z,68.82
2022-10-17T02:52:04.390Z,68.82
2022-10-17T02:54:46.543Z,69.21
2022-10-17T02:57:40.123Z,69.21
2022-10-17T03:00:17.880Z,69.02
2022-10-17T03:02:50.943Z,69.02
2022-10-17T03:05:26.079Z,69.15
2022-10-17T03:07:56.864Z,68.93
2022-10-17T03:10:27.039Z,69.90
2022-10-17T03:12:57.862Z,69.40
2022-10-17T03:15:28.081Z,69.57
2022-10-17T03:18:00.133Z,69.57
2022-10-17T03:20:30.705Z,68.99
2022-10-17T03:23:02.019Z,69.36
2022-10-17T03:25:32.447Z,69.36
2022-10-17T03:28:02.809Z,69.52
2022-10-17T03:30:33.913Z,69.71
2022-10-17T03:33:04.299Z,69.57
2022-10-17T03:35:34.472Z,69.47
2022-10-17T03:38:04.853Z,69.91
2022-10-17T03:40:35.197Z,69.91
2022-10-17T03:43:05.579Z,69.76
2022-10-17T03:45:36.110Z,69.45
2022-10-17T03:48:06.976Z,70.01
2022-10-17T03:50:37.245Z,70.09
2022-10-17T03:53:07.526Z,69.84
2022-10-17T03:55:38.966Z,69.84
2022-10-17T03:58:10.124Z,69.97
2022-10-17T04:00:40.514Z,69.68
2022-10-17T04:03:16.271Z,69.66
2022-10-17T04:05:43.217Z,69.89
2022-10-17T04:08:13.902Z,70.02
2022-10-17T04:10:45.562Z,70.02
2022-10-17T04:13:15.886Z,69.91
2022-10-17T04:16:00.960Z,70.41
2022-10-17T04:18:32.098Z,70.33
2022-10-17T04:21:04.017Z,70.17
2022-10-17T04:23:36.395Z,70.17
2022-10-17T04:26:07.537Z,70.27
2022-10-17T04:31:12.759Z,69.92
2022-10-17T04:33:43.323Z,70.06
2022-10-17T04:36:16.604Z,69.69
2022-10-17T04:38:47.757Z,69.51
2022-10-17T04:41:19.762Z,69.61
2022-10-17T04:43:51.408Z,69.61
2022-10-17T04:46:21.840Z,69.43
2022-10-17T04:48:53.843Z,69.29
2022-10-17T04:51:26.596Z,69.18
2022-10-17T04:53:57.636Z,68.81
2022-10-17T04:56:27.994Z,68.45
2022-10-17T04:58:59.997Z,68.06
2022-10-17T05:01:30.542Z,68.48
2022-10-17T05:04:00.877Z,68.10
2022-10-17T05:06:31.579Z,68.19
2022-10-17T05:09:01.936Z,68.27
2022-10-17T05:11:32.497Z,68.46
2022-10-17T05:14:03.803Z,68.43
2022-10-17T05:16:35.678Z,67.89
2022-10-17T05:19:06.902Z,67.82
2022-10-17T05:21:38.251Z,67.96
2022-10-17T05:24:10.372Z,67.43
2022-10-17T05:26:41.340Z,67.43
2022-10-17T05:29:12.399Z,67.45
2022-10-17T05:31:42.924Z,67.09
2022-10-17T05:34:14.410Z,66.90
2022-10-17T05:36:44.721Z,66.90
2022-10-17T05:39:15.147Z,67.34
2022-10-17T05:41:45.974Z,67.34
2022-10-17T05:44:17.186Z,67.88
2022-10-17T05:47:08.003Z,67.34
2022-10-17T05:49:46.434Z,66.15
2022-10-17T05:52:11.240Z,66.35
2022-10-17T05:54:41.439Z,66.36
2022-10-17T05:57:11.716Z,66.79
2022-10-17T05:59:42.234Z,66.17
2022-10-17T06:02:19.534Z,65.53
2022-10-17T06:04:54.718Z,66.50
2022-10-17T06:07:26.117Z,67.00
2022-10-17T06:09:56.945Z,65.76
2022-10-17T06:12:27.474Z,65.76
2022-10-17T06:14:58.127Z,64.30
2022-10-17T06:17:29.106Z,63.98
2022-10-17T06:19:59.505Z,64.45
2022-10-17T06:22:30.627Z,65.76
2022-10-17T06:25:02.887Z,64.52
2022-10-17T06:27:36.117Z,64.15
2022-10-17T06:30:09.455Z,59.10
2022-10-17T06:32:40.774Z,59.10
2022-10-17T06:35:14.598Z,52.13
2022-10-17T06:37:46.604Z,50.88
2022-10-17T06:40:16.994Z,47.74
2022-10-17T06:42:49.542Z,47.20
2022-10-17T06:45:19.984Z,47.09
2022-10-17T06:47:50.375Z,47.09
2022-10-17T06:50:20.930Z,46.18
2022-10-17T06:52:53.582Z,45.28
2022-10-17T06:55:26.419Z,45.28
2022-10-17T06:57:58.771Z,45.13
2022-10-17T07:00:29.523Z,45.54
2022-10-17T07:03:00.904Z,45.29
2022-10-17T07:05:31.341Z,45.46
2022-10-17T07:08:02.353Z,45.46
2022-10-17T07:10:32.871Z,45.22
2022-10-17T07:13:05.579Z,45.46
2022-10-17T07:15:37.005Z,43.56
2022-10-17T07:18:07.819Z,43.56
2022-10-17T07:20:40.492Z,45.10
2022-10-17T07:23:13.758Z,45.67
2022-10-17T07:25:47.647Z,45.67
2022-10-17T07:28:18.711Z,44.56
2022-10-17T07:30:52.094Z,44.56
2022-10-17T07:33:22.522Z,45.68
2022-10-17T07:35:52.883Z,45.13
2022-10-17T07:38:23.217Z,43.49
2022-10-17T07:41:02.136Z,43.49
2022-10-17T07:43:35.877Z,42.54
2022-10-17T07:46:06.518Z,40.55
2022-10-17T07:48:36.739Z,40.55
2022-10-17T07:51:09.619Z,38.72
2022-10-17T07:53:42.686Z,38.67
2022-10-17T07:56:14.067Z,38.49
2022-10-17T07:58:44.434Z,37.69
2022-10-17T08:01:15.724Z,37.32
2022-10-17T08:03:48.581Z,36.90
2022-10-17T08:06:19.182Z,36.81
2022-10-17T08:08:49.503Z,36.81
2022-10-17T08:11:21.380Z,35.22
2022-10-17T08:13:52.663Z,35.22
2022-10-17T08:16:24.845Z,34.52
2022-10-17T08:18:56.037Z,33.59
2022-10-17T08:21:26.994Z,33.59
2022-10-17T08:23:57.891Z,32.98
2022-10-17T08:26:31.446Z,30.23
2022-10-17T08:29:02.406Z,32.35
2022-10-17T08:31:34.130Z,31.37
2022-10-17T08:34:04.474Z,31.37
2022-10-17T08:36:35.294Z,30.89
2022-10-17T08:39:06.085Z,30.89
2022-10-17T08:41:57.040Z,29.67
2022-10-17T08:44:39.287Z,29.67
2022-10-17T08:47:32.506Z,29.17
2022-10-17T08:50:35.087Z,28.48
2022-10-17T08:53:38.272Z,28.48
2022-10-17T08:56:19.568Z,29.65
2022-10-17T09:05:17.095Z,29.67
2022-10-17T09:08:10.985Z,30.81
2022-10-17T09:11:02.312Z,31.03
2022-10-17T09:14:05.156Z,33.75
2022-10-17T09:17:11.464Z,32.81
2022-10-17T09:19:45.267Z,32.81
2022-10-17T09:22:24.748Z,32.72
2022-10-17T09:25:00.734Z,33.58
2022-10-17T09:27:48.867Z,33.30
2022-10-17T09:30:46.506Z,31.81
2022-10-17T09:33:35.243Z,31.81
2022-10-17T09:35:55.042Z,33.83
2022-10-17T09:38:28.225Z,33.28
2022-10-17T09:41:01.582Z,33.12
2022-10-17T09:43:32.003Z,34.61
2022-10-17T09:46:05.518Z,34.61
2022-10-17T09:48:42.193Z,34.07
2022-10-17T09:51:22.015Z,35.46
2022-10-17T09:53:57.799Z,37.29
2022-10-17T09:56:28.096Z,37.62
2022-10-17T09:58:59.431Z,36.83
2022-10-17T10:01:31.676Z,36.83
2022-10-17T10:04:14.090Z,36.55
2022-10-17T10:07:07.085Z,36.64
2022-10-17T10:09:40.484Z,36.96
2022-10-17T10:12:17.798Z,34.45
2022-10-17T10:14:52.179Z,37.20
2022-10-17T10:17:39.027Z,37.20
2022-10-17T10:20:30.214Z,36.13
2022-10-17T10:23:15.873Z,37.33
2022-10-17T10:25:52.254Z,37.33
2022-10-17T10:28:34.343Z,35.93
2022-10-17T10:31:07.882Z,35.93
2022-10-17T10:33:41.754Z,36.42
2022-10-17T10:36:12.264Z,33.38
2022-10-17T10:38:42.691Z,33.38
2022-10-17T10:41:20.826Z,31.51
2022-10-17T10:43:53.280Z,34.47
2022-10-17T10:46:28.684Z,34.12
2022-10-17T10:49:01.435Z,34.12
2022-10-17T10:51:41.565Z,34.25
2022-10-17T10:54:23.039Z,35.59
2022-10-17T10:56:56.800Z,35.59
2022-10-17T10:59:41.896Z,34.41
2022-10-17T11:02:15.089Z,34.41
2022-10-17T11:05:09.669Z,35.14
2022-10-17T11:07:45.648Z,35.14
2022-10-17T11:10:19.205Z,35.25
2022-10-17T11:16:22.818Z,34.46
2022-10-17T11:19:02.526Z,35.71
2022-10-17T11:22:03.301Z,36.10
2022-10-17T11:27:54.860Z,36.47
2022-10-17T11:30:28.493Z,36.28
2022-10-17T11:33:03.393Z,35.21
2022-10-17T11:35:53.627Z,35.21
2022-10-17T11:38:45.157Z,36.69
2022-10-17T11:41:30.349Z,35.99
2022-10-17T11:44:20.290Z,35.99
2022-10-17T11:46:53.548Z,35.72
2022-10-17T11:49:39.869Z,39.37
2022-10-17T11:52:18.549Z,34.77
2022-10-17T11:54:54.921Z,34.31
2022-10-17T11:57:46.483Z,34.31
2022-10-17T12:00:32.430Z,35.05
2022-10-17T12:03:21.276Z,33.11
2022-10-17T12:06:22.888Z,33.11
2022-10-17T12:09:18.891Z,32.89
2022-10-17T12:11:58.621Z,31.60
2022-10-17T12:14:54.441Z,31.81
2022-10-17T12:17:43.099Z,31.81
2022-10-17T12:20:25.544Z,31.00
2022-10-17T12:26:11.235Z,30.38
2022-10-17T12:28:47.470Z,30.11
2022-10-17T12:31:22.819Z,32.92
2022-10-17T12:34:10.525Z,32.92
2022-10-17T12:36:41.231Z,32.44
2022-10-17T12:39:14.446Z,35.12
2022-10-17T12:41:49.443Z,36.79
2022-10-17T12:44:24.835Z,36.79
2022-10-17T12:47:08.058Z,33.89
2022-10-17T12:49:41.753Z,35.83
2022-10-17T12:52:34.146Z,36.20
2022-10-17T12:57:59.406Z,38.41
2022-10-17T13:00:35.785Z,42.15
2022-10-17T13:03:27.794Z,42.15
2022-10-17T13:06:01.068Z,42.07
2022-10-17T13:08:43.014Z,40.69
2022-10-17T13:11:11.862Z,40.69
2022-10-17T13:13:48.644Z,40.31
2022-10-17T13:16:36.983Z,40.31
2022-10-17T13:19:17.462Z,41.76
2022-10-17T13:22:01.030Z,40.96
2022-10-17T13:24:55.120Z,39.65
2022-10-17T13:27:31.909Z,42.65
2022-10-17T13:30:30.933Z,42.65
2022-10-17T13:32:59.843Z,43.91
2022-10-17T13:38:09.934Z,45.84
2022-10-17T13:40:50.117Z,45.84
2022-10-17T13:43:20.013Z,43.53
2022-10-17T13:46:09.124Z,40.28
2022-10-17T13:48:39.255Z,40.28
2022-10-17T13:51:11.123Z,42.62
2022-10-17T13:53:42.491Z,42.62
2022-10-17T13:56:29.504Z,44.05
2022-10-17T13:59:01.327Z,45.89
2022-10-17T14:01:32.607Z,43.74
2022-10-17T14:04:09.527Z,43.74
2022-10-17T14:06:37.099Z,46.77
2022-10-17T14:09:10.158Z,47.50
2022-10-17T14:11:43.850Z,46.46
2022-10-17T14:14:23.332Z,43.94
2022-10-17T14:16:54.496Z,43.94
2022-10-17T14:19:31.171Z,47.41
2022-10-17T14:22:19.829Z,50.92
2022-10-17T14:24:51.613Z,43.28
2022-10-17T14:27:40.244Z,43.28
2022-10-17T14:30:55.181Z,49.81
2022-10-17T14:33:10.167Z,49.25
2022-10-17T14:35:55.391Z,49.25
2022-10-17T14:38:46.275Z,50.32
2022-10-17T14:41:44.658Z,52.31
2022-10-17T14:44:01.872Z,52.31
2022-10-17T14:46:36.834Z,53.15
2022-10-17T14:49:10.081Z,53.45
2022-10-17T14:51:50.646Z,53.45
2022-10-17T14:54:27.167Z,52.64
2022-10-17T14:56:57.529Z,51.92
2022-10-17T14:59:52.929Z,51.92
2022-10-17T15:02:00.838Z,51.55
2022-10-17T15:04:31.166Z,51.23
2022-10-17T15:07:01.590Z,50.81
2022-10-17T15:09:33.952Z,50.81
2022-10-17T15:12:09.700Z,49.80
2022-10-17T15:14:40.344Z,49.80
2022-10-17T15:20:09.199Z,49.82
2022-10-17T15:22:39.653Z,50.33
2022-10-17T15:25:14.564Z,50.98
2022-10-17T15:28:06.075Z,51.94
2022-10-17T15:30:38.506Z,51.52
2022-10-17T15:33:09.563Z,52.39
2022-10-17T15:35:40.602Z,52.86
2022-10-17T15:39:02.749Z,53.21
2022-10-17T15:40:49.571Z,52.95
2022-10-17T15:43:25.126Z,53.43
2022-10-17T15:46:00.480Z,53.43
2022-10-17T15:48:35.638Z,54.21
2022-10-17T15:54:21.324Z,57.28
2022-10-17T15:57:00.500Z,57.28
2022-10-17T15:59:34.912Z,57.82
2022-10-17T16:02:12.090Z,58.06
2022-10-17T16:04:47.384Z,58.06
2022-10-17T16:07:27.122Z,58.17
2022-10-17T16:09:59.166Z,58.17
2022-10-17T16:12:34.959Z,58.07
2022-10-17T16:15:02.596Z,57.91
2022-10-17T16:17:33.352Z,58.96
2022-10-17T16:20:04.332Z,58.96
2022-10-17T16:22:46.710Z,59.18
2022-10-17T16:25:41.607Z,59.73
2022-10-17T16:28:14.801Z,60.58
2022-10-17T16:30:46.524Z,60.86
2022-10-17T16:36:24.987Z,60.54
2022-10-17T16:38:56.735Z,60.33
2022-10-17T16:41:32.988Z,60.74
2022-10-17T16:44:08.899Z,61.68
2022-10-17T16:46:39.309Z,61.17
2022-10-17T16:49:10.975Z,61.03
2022-10-17T16:51:41.873Z,61.13
2022-10-17T16:54:13.894Z,60.86
2022-10-17T16:56:53.484Z,60.91
2022-10-17T16:59:25.837Z,61.30
2022-10-17T17:01:58.904Z,61.96
2022-10-17T17:04:35.724Z,62.33
2022-10-17T17:07:06.428Z,62.20
2022-10-17T17:09:38.789Z,61.61
2022-10-17T17:12:10.724Z,61.53
2022-10-17T17:14:43.757Z,61.92
2022-10-17T17:17:37.065Z,61.92
2022-10-17T17:19:54.358Z,61.84
2022-10-17T17:22:28.261Z,61.84
2022-10-17T17:25:01.187Z,62.61
2022-10-17T17:27:55.335Z,62.41
2022-10-17T17:47:47.802Z,64.33
2022-10-17T17:51:41.272Z,63.16
2022-10-17T17:53:31.479Z,63.07
2022-10-17T17:56:30.836Z,64.08
2022-10-17T18:02:34.566Z,63.40
2022-10-17T18:05:23.259Z,63.86
2022-10-17T18:07:43.231Z,63.65
2022-10-17T18:10:16.696Z,63.65
2022-10-17T18:13:55.857Z,63.23
2022-10-17T18:16:10.306Z,63.67
2022-10-17T18:18:58.793Z,63.67
2022-10-17T18:21:40.138Z,64.09
2022-10-17T18:24:11.536Z,63.80
2022-10-17T18:26:44.744Z,63.95
2022-10-17T18:29:27.358Z,64.03
2022-10-17T18:32:00.346Z,64.57
2022-10-17T18:34:31.160Z,64.57
2022-10-17T18:37:03.751Z,63.54
2022-10-17T18:39:34.299Z,63.54
2022-10-17T18:42:08.023Z,63.75
2022-10-17T18:44:55.261Z,63.43
2022-10-17T18:47:23.659Z,63.29
2022-10-17T18:49:54.157Z,63.71
2022-10-17T18:52:29.577Z,63.34
2022-10-17T18:55:15.761Z,64.88
2022-10-17T18:57:51.870Z,64.27
2022-10-17T19:00:26.719Z,64.58
2022-10-17T19:02:57.676Z,65.27
2022-10-17T19:19:46.946Z,64.75
2022-10-17T19:22:30.060Z,64.75
2022-10-17T19:25:06.093Z,65.96
2022-10-17T19:27:42.106Z,65.84
2022-10-17T19:30:14.171Z,65.87
2022-10-17T19:32:50.151Z,65.87
2022-10-17T19:35:22.157Z,65.92
2022-10-17T19:37:53.219Z,66.47
2022-10-17T19:40:23.775Z,66.25
2022-10-17T19:42:54.556Z,66.11
2022-10-17T19:45:30.333Z,66.11
2022-10-17T19:48:07.204Z,66.76
2022-10-17T19:50:48.178Z,66.76
2022-10-17T19:53:24.998Z,66.37
2022-10-17T19:56:16.166Z,66.32
2022-10-17T19:58:57.693Z,66.33
2022-10-17T20:01:43.455Z,66.97
2022-10-17T20:04:54.749Z,66.97
2022-10-17T20:07:36.064Z,66.95
2022-10-17T20:13:29.591Z,66.45
2022-10-17T20:16:00.256Z,66.61
2022-10-17T20:18:36.966Z,67.42
2022-10-17T20:21:11.446Z,67.34
2022-10-17T20:23:43.526Z,68.54
2022-10-17T20:28:54.013Z,68.54
2022-10-17T20:31:39.134Z,68.68
2022-10-17T20:34:18.318Z,69.02
2022-10-17T20:36:52.118Z,69.19
2022-10-17T20:39:22.502Z,69.19
2022-10-17T20:41:54.084Z,68.58
2022-10-17T20:44:24.683Z,68.12
2022-10-17T20:47:02.040Z,68.12
2022-10-17T20:49:27.130Z,69.11
2022-10-17T20:51:58.044Z,69.11
2022-10-17T20:54:30.302Z,68.91
2022-10-17T20:57:04.807Z,69.78
2022-10-17T20:59:35.853Z,69.78
2022-10-17T21:02:06.891Z,70.45
2022-10-17T21:04:47.215Z,70.60
2022-10-17T21:07:11.136Z,70.75
2022-10-17T21:09:42.537Z,70.75
2022-10-17T21:12:25.934Z,70.71
2022-10-17T21:14:49.151Z,70.71
2022-10-17T21:17:24.303Z,70.84
2022-10-17T21:19:54.898Z,70.99
2022-10-17T21:22:25.415Z,70.88
2022-10-17T21:24:56.056Z,70.68
2022-10-17T21:27:27.853Z,71.72
2022-10-17T21:29:58.313Z,72.14
2022-10-17T21:32:40.208Z,71.80
2022-10-17T21:35:02.807Z,71.80
2022-10-17T21:37:35.339Z,71.43
2022-10-17T21:40:06.385Z,71.16
2022-10-17T21:42:38.391Z,71.16
2022-10-17T21:45:15.132Z,71.63
2022-10-17T21:47:54.883Z,71.81
2022-10-17T21:50:14.076Z,71.55
2022-10-17T21:52:45.005Z,71.66
2022-10-17T21:55:15.380Z,71.80
2022-10-17T21:57:45.611Z,71.58
2022-10-17T22:00:16.606Z,71.58
2022-10-17T22:02:46.890Z,70.12
2022-10-17T22:05:17.315Z,69.28
2022-10-17T22:07:48.629Z,68.52
2022-10-17T22:10:18.807Z,68.55
2022-10-17T22:12:49.014Z,68.55
2022-10-17T22:15:19.634Z,69.01
2022-10-17T22:17:50.579Z,69.85
2022-10-17T22:20:22.503Z,70.07
2022-10-17T22:22:53.359Z,70.32
2022-10-17T22:25:23.875Z,70.32
2022-10-17T22:27:54.335Z,71.53
2022-10-17T22:30:25.293Z,72.19
2022-10-17T22:32:56.450Z,72.19
2022-10-17T22:35:26.718Z,73.19
2022-10-17T22:37:56.938Z,71.60
2022-10-17T22:40:27.086Z,72.00
2022-10-17T22:42:58.325Z,73.01
2022-10-17T22:45:29.013Z,71.85
2022-10-17T22:47:59.630Z,71.85
2022-10-17T22:50:29.950Z,71.27
2022-10-17T22:53:01.327Z,71.87
2022-10-17T22:55:33.350Z,72.16
2022-10-17T22:58:03.814Z,72.94
2022-10-17T23:00:34.113Z,72.94
2022-10-17T23:03:04.755Z,72.63
2022-10-17T23:05:35.083Z,72.43
2022-10-17T23:08:06.099Z,72.33
2022-10-17T23:10:37.183Z,72.20
2022-10-17T23:13:08.664Z,71.87
2022-10-17T23:15:40.265Z,71.87
2022-10-17T23:18:11.124Z,71.79
2022-10-17T23:20:41.358Z,72.14
2022-10-17T23:23:12.034Z,72.33
2022-10-17T23:25:48.978Z,72.61
2022-10-17T23:28:19.505Z,73.09
2022-10-17T23:30:49.673Z,72.64
2022-10-17T23:33:20.261Z,72.87
2022-10-17T23:35:50.395Z,72.87
2022-10-17T23:38:20.590Z,72.78
2022-10-17T23:40:50.827Z,72.78
2022-10-17T23:43:20.998Z,72.50
2022-10-17T23:45:51.187Z,72.50
2022-10-17T23:48:21.770Z,72.94
2022-10-17T23:50:52.007Z,72.82
2022-10-17T23:53:23.013Z,72.82
2022-10-17T23:55:53.767Z,72.85
2022-10-17T23:58:24.046Z,73.42
